createdAt,value
2022-11-24T00:03:30.058Z,11.10
2022-11-24T00:08:34.329Z,10.90
2022-11-24T00:13:41.591Z,13.00
2022-11-24T00:18:47.522Z,13.90
2022-11-24T00:23:51.822Z,11.60
2022-11-24T00:28:57.642Z,10.10
2022-11-24T00:34:03.825Z,9.70
2022-11-24T00:39:14.850Z,13.40
2022-11-24T00:44:18.133Z,12.60
2022-11-24T00:49:21.549Z,13.70
2022-11-24T00:54:24.962Z,8.20
2022-11-24T00:59:28.379Z,14.00
2022-11-24T01:04:31.946Z,12.60
2022-11-24T01:09:35.517Z,10.70
2022-11-24T01:14:39.652Z,11.80
2022-11-24T01:19:42.864Z,11.20
2022-11-24T01:24:46.278Z,13.50
2022-11-24T01:29:49.489Z,13.20
2022-11-24T01:34:52.802Z,14.20
2022-11-24T01:39:56.219Z,14.60
2022-11-24T01:45:30.664Z,13.20
2022-11-24T01:50:36.013Z,12.70
2022-11-24T01:55:40.159Z,9.00
2022-11-24T02:00:45.415Z,14.90
2022-11-24T02:05:58.148Z,16.70
2022-11-24T02:11:04.636Z,11.20
2022-11-24T02:16:10.886Z,13.10
2022-11-24T02:21:16.359Z,13.00
2022-11-24T02:26:46.834Z,15.30
2022-11-24T02:31:58.541Z,15.20
2022-11-24T02:37:01.756Z,9.70
2022-11-24T02:42:12.750Z,14.40
2022-11-24T02:47:15.962Z,13.50
2022-11-24T02:52:19.684Z,13.20
2022-11-24T02:57:23.682Z,16.20
2022-11-24T03:02:27.004Z,12.90
2022-11-24T03:07:30.376Z,17.70
2022-11-24T03:12:33.759Z,13.00
2022-11-24T03:17:37.277Z,14.20
2022-11-24T03:22:41.841Z,16.30
2022-11-24T03:27:45.437Z,16.30
2022-11-24T03:32:48.755Z,16.60
2022-11-24T03:37:52.043Z,19.30
2022-11-24T03:42:55.481Z,16.10
2022-11-24T03:47:58.698Z,15.90
2022-11-24T03:53:02.008Z,16.50
2022-11-24T03:58:05.322Z,14.20
2022-11-24T04:03:09.358Z,15.40
2022-11-24T04:08:13.457Z,17.00
2022-11-24T04:13:19.465Z,15.50
2022-11-24T04:18:23.184Z,16.20
2022-11-24T04:23:26.501Z,13.40
2022-11-24T04:28:29.816Z,15.70
2022-11-24T04:33:33.438Z,16.60
2022-11-24T04:39:25.933Z,14.30
2022-11-24T04:44:00.027Z,15.50
2022-11-24T04:49:03.446Z,16.80
2022-11-24T04:54:12.527Z,11.50
2022-11-24T04:59:15.909Z,14.70
2022-11-24T05:04:21.669Z,13.80
2022-11-24T05:09:36.916Z,13.60
2022-11-24T05:14:48.368Z,11.80
2022-11-24T05:19:51.577Z,12.80
2022-11-24T05:24:54.796Z,13.10
2022-11-24T05:29:58.101Z,12.60
2022-11-24T05:35:02.544Z,12.20
2022-11-24T05:40:07.265Z,11.20
2022-11-24T05:45:14.031Z,10.80
2022-11-24T05:50:20.706Z,11.40
2022-11-24T05:55:23.784Z,11.50
2022-11-24T06:00:27.610Z,9.40
2022-11-24T06:05:30.913Z,11.00
2022-11-24T06:10:34.023Z,10.10
2022-11-24T06:15:37.973Z,9.90
2022-11-24T06:20:42.143Z,10.50
2022-11-24T06:25:51.304Z,11.40
2022-11-24T06:30:54.752Z,10.70
2022-11-24T06:36:05.850Z,13.40
2022-11-24T06:41:13.286Z,11.20
2022-11-24T06:46:16.330Z,15.40
2022-11-24T06:51:20.181Z,18.10
2022-11-24T06:56:23.160Z,12.30
2022-11-24T07:01:28.420Z,12.30
2022-11-24T07:06:31.569Z,12.70
2022-11-24T07:11:35.358Z,12.00
2022-11-24T07:16:39.657Z,11.60
2022-11-24T07:21:42.633Z,12.90
2022-11-24T07:26:45.946Z,8.30
2022-11-24T07:31:49.118Z,12.90
2022-11-24T07:36:52.372Z,13.30
2022-11-24T07:41:55.580Z,13.70
2022-11-24T07:46:58.598Z,15.10
2022-11-24T07:52:02.008Z,15.50
2022-11-24T07:57:05.221Z,12.40
2022-11-24T08:02:12.402Z,12.40
2022-11-24T08:07:15.413Z,13.70
2022-11-24T08:12:22.702Z,14.40
2022-11-24T08:17:25.739Z,13.70
2022-11-24T08:22:28.847Z,11.00
2022-11-24T08:27:31.960Z,13.00
2022-11-24T08:32:35.165Z,12.60
2022-11-24T08:37:38.277Z,13.60
2022-11-24T08:42:41.286Z,15.20
2022-11-24T08:47:44.393Z,16.40
2022-11-24T08:52:47.605Z,10.30
2022-11-24T08:57:50.715Z,11.60
2022-11-24T09:02:57.891Z,10.70
2022-11-24T09:08:01.128Z,13.40
2022-11-24T09:13:04.650Z,12.40
2022-11-24T09:18:07.758Z,14.60
2022-11-24T09:23:11.476Z,13.90
2022-11-24T09:28:14.584Z,13.20
2022-11-24T09:33:17.692Z,15.10
2022-11-24T09:38:20.813Z,15.30
2022-11-24T09:43:34.050Z,11.50
2022-11-24T09:48:41.666Z,11.10
2022-11-24T09:53:53.682Z,13.50
2022-11-24T09:59:03.246Z,15.30
2022-11-24T10:04:16.621Z,12.00
2022-11-24T10:09:45.833Z,15.00
2022-11-24T10:15:07.360Z,17.00
2022-11-24T10:20:27.355Z,14.70
2022-11-24T10:25:59.152Z,16.40
2022-11-24T10:31:27.712Z,18.20
2022-11-24T10:36:51.211Z,16.30
2022-11-24T10:42:06.013Z,13.30
2022-11-24T10:47:28.244Z,15.90
2022-11-24T10:52:40.389Z,14.60
2022-11-24T10:57:45.226Z,16.60
2022-11-24T11:02:50.698Z,13.30
2022-11-24T11:08:20.050Z,14.90
2022-11-24T11:13:30.874Z,14.90
2022-11-24T11:18:34.232Z,18.10
2022-11-24T11:23:38.160Z,13.90
2022-11-24T11:28:41.273Z,14.10
2022-11-24T11:34:04.145Z,19.00
2022-11-24T11:39:35.070Z,17.30
2022-11-24T11:44:49.008Z,16.50
2022-11-24T11:49:53.120Z,16.90
2022-11-24T11:55:22.316Z,14.80
2022-11-24T12:00:25.425Z,17.90
2022-11-24T12:05:46.559Z,15.70
2022-11-24T12:11:10.087Z,16.90
2022-11-24T12:16:41.823Z,16.10
2022-11-24T12:22:03.467Z,15.40
2022-11-24T12:27:23.289Z,19.30
2022-11-24T12:33:03.957Z,21.40
2022-11-24T12:38:27.772Z,19.30
2022-11-24T12:43:35.781Z,15.80
2022-11-24T12:48:38.677Z,19.10
2022-11-24T12:53:43.478Z,18.30
2022-11-24T12:59:06.606Z,17.90
2022-11-24T13:04:39.205Z,17.20
2022-11-24T13:10:26.365Z,14.20
2022-11-24T13:16:20.598Z,15.50
2022-11-24T13:21:51.870Z,16.50
2022-11-24T13:27:24.631Z,15.30
2022-11-24T13:32:33.675Z,15.40
2022-11-24T13:37:36.788Z,16.90
2022-11-24T13:42:54.845Z,15.60
2022-11-24T13:47:58.058Z,15.80
2022-11-24T13:53:18.060Z,18.20
2022-11-24T13:58:27.621Z,18.80
2022-11-24T14:03:55.478Z,15.90
2022-11-24T14:09:42.651Z,17.10
2022-11-24T14:14:51.456Z,18.70
2022-11-24T14:19:56.970Z,16.60
2022-11-24T14:25:02.412Z,18.50
2022-11-24T14:30:06.464Z,18.00
2022-11-24T14:35:43.667Z,11.00
2022-11-24T14:40:50.256Z,17.10
2022-11-24T14:45:57.298Z,16.40
2022-11-24T14:51:14.678Z,15.40
2022-11-24T14:56:26.411Z,13.90
2022-11-24T15:01:29.847Z,10.40
2022-11-24T15:06:33.146Z,14.80
2022-11-24T15:11:36.356Z,11.40
2022-11-24T15:16:40.196Z,15.70
2022-11-24T15:21:43.492Z,15.70
2022-11-24T15:26:46.905Z,18.30
2022-11-24T15:31:52.839Z,17.30
2022-11-24T15:36:56.607Z,19.80
2022-11-24T15:41:59.820Z,19.70
2022-11-24T15:47:03.052Z,20.90
2022-11-24T15:52:07.060Z,17.00
2022-11-24T15:57:11.066Z,17.10
2022-11-24T16:02:14.201Z,22.90
2022-11-24T16:07:17.446Z,17.40
2022-11-24T16:12:20.622Z,12.90
2022-11-24T16:17:23.726Z,19.10
2022-11-24T16:22:26.732Z,20.30
2022-11-24T16:27:30.045Z,18.40
2022-11-24T16:32:33.056Z,16.60
2022-11-24T16:37:36.474Z,19.30
2022-11-24T16:42:39.696Z,20.30
2022-11-24T16:47:43.196Z,21.50
2022-11-24T16:52:46.316Z,21.80
2022-11-24T16:57:49.423Z,20.80
2022-11-24T17:02:52.472Z,20.60
2022-11-24T17:07:55.759Z,20.90
2022-11-24T17:12:59.068Z,21.10
2022-11-24T17:18:23.474Z,20.60
2022-11-24T17:23:26.247Z,18.20
2022-11-24T17:28:29.950Z,19.00
2022-11-24T17:33:33.096Z,15.80
2022-11-24T17:38:37.091Z,21.20
2022-11-24T17:43:40.234Z,20.60
2022-11-24T17:48:43.440Z,21.80
2022-11-24T17:53:49.565Z,19.60
2022-11-24T17:58:57.955Z,22.80
2022-11-24T18:04:01.480Z,19.90
2022-11-24T18:09:04.584Z,27.70
2022-11-24T18:14:07.790Z,23.00
2022-11-24T18:19:11.510Z,21.10
2022-11-24T18:24:17.488Z,23.00
2022-11-24T18:29:24.396Z,26.20
2022-11-24T18:34:27.601Z,23.60
2022-11-24T18:39:30.707Z,29.00
2022-11-24T18:44:34.406Z,24.70
2022-11-24T18:49:37.649Z,25.50
2022-11-24T18:54:40.868Z,26.40
2022-11-24T18:59:44.070Z,25.00
2022-11-24T19:04:47.281Z,24.70
2022-11-24T19:09:50.384Z,24.10
2022-11-24T19:14:54.725Z,26.20
2022-11-24T19:19:57.838Z,26.30
2022-11-24T19:25:00.949Z,23.50
2022-11-24T19:30:04.526Z,21.50
2022-11-24T19:35:07.948Z,28.10
2022-11-24T19:40:11.521Z,29.30
2022-11-24T19:45:14.619Z,27.50
2022-11-24T19:50:18.635Z,23.70
2022-11-24T19:55:21.845Z,27.20
2022-11-24T20:00:29.107Z,26.40
2022-11-24T20:05:34.886Z,26.20
2022-11-24T20:10:42.485Z,28.50
2022-11-24T20:15:45.646Z,24.40
2022-11-24T20:20:48.672Z,25.20
2022-11-24T20:25:51.873Z,24.70
2022-11-24T20:30:54.974Z,25.70
2022-11-24T20:36:13.136Z,22.90
2022-11-24T20:41:17.984Z,20.50
2022-11-24T20:46:27.238Z,19.10
2022-11-24T20:51:33.322Z,17.80
2022-11-24T20:56:39.869Z,15.00
2022-11-24T21:01:45.585Z,20.30
2022-11-24T21:06:49.404Z,17.40
2022-11-24T21:11:52.573Z,17.10
2022-11-24T21:16:55.652Z,16.80
2022-11-24T21:21:58.730Z,17.90
2022-11-24T21:27:01.742Z,18.30
2022-11-24T21:32:05.483Z,20.40
2022-11-24T21:37:08.569Z,20.20
2022-11-24T21:42:11.783Z,17.40
2022-11-24T21:47:14.888Z,18.60
2022-11-24T21:52:17.999Z,16.10
2022-11-24T21:57:23.255Z,15.60
2022-11-24T22:02:26.345Z,19.80
2022-11-24T22:07:33.032Z,14.20
2022-11-24T22:12:36.061Z,16.40
2022-11-24T22:17:39.123Z,13.60
2022-11-24T22:22:42.278Z,15.20
2022-11-24T22:27:45.297Z,18.30
2022-11-24T22:32:48.396Z,16.80
2022-11-24T22:37:51.900Z,16.70
2022-11-24T22:42:54.921Z,13.90
2022-11-24T22:47:58.098Z,15.80
2022-11-24T22:53:01.340Z,16.50
2022-11-24T22:58:04.354Z,13.30
2022-11-24T23:03:07.386Z,14.30
2022-11-24T23:08:10.564Z,15.10
2022-11-24T23:13:13.775Z,12.80
2022-11-24T23:18:16.785Z,14.90
2022-11-24T23:23:19.898Z,12.00
2022-11-24T23:28:23.000Z,13.40
2022-11-24T23:33:26.107Z,13.80
2022-11-24T23:38:32.549Z,12.50
2022-11-24T23:43:35.816Z,11.10
2022-11-24T23:48:39.810Z,14.10
2022-11-24T23:53:44.176Z,12.00
2022-11-24T23:58:48.121Z,8.20
